Peter Mac — WDC9573 — position and weather

sailwx.info

Track history (hours):
 
Tides and Currents Weather Stations Pressure Air Temp Water Temp Dewpoint Dewpoint Depression Visibility Wind Speed Wind Dir Waves Ship Positions

Peter Mac

Owner: So Cal Ship Services inc., TERMINAL ISLAND, CA. More information available from US FCC via Universal Licensing System and Coast Guard Vessel Documentation Center.

Last reported at 2018-May-24 19:37 UTC. Time now 2018-May-24 21:09 UTC.
Position N 33°40' W 118°03'.

Length 27 m; draft 2.4 m.

Type: Other ship. MMSI: 367104080.

Date/timePositionNaut miles runAvg speedWind from/ knotsBaromVisibWave heightAir tempDewpointWater temp
2018-May-24 19:37N 33°40' W 118°03'213.8
2018-May-24 19:26N 33°42' W 118°05'1 1.7
2018-May-24 19:00N 33°42' W 118°05'2 3.0
2018-May-24 18:11N 33°40' W 118°04'315.2
2018-May-24 17:57N 33°42' W 118°07'614.2
2018-May-24 17:30N 33°43' W 118°15'2 3.6
2018-May-24 17:01N 33°44' W 118°16'2 3.3
2018-May-24 16:30N 33°43' W 118°15'612.6
2018-May-24 16:01N 33°42' W 118°08'5 7.9
2018-May-24 15:26N 33°40' W 118°03'0 0.0
2018-May-24 14:53N 33°40' W 118°03'4 6.6
2018-May-24 14:18N 33°43' W 118°06'0 0.2
2018-May-24 14:01N 33°43' W 118°06'9 0.6
2018-May-23 23:51N 33°44' W 118°16'1 3.4
2018-May-23 23:31N 33°43' W 118°16'714.1
2018-May-23 23:00N 33°44' W 118°07'611.0
2018-May-23 22:30N 33°40' W 118°03'713.1
2018-May-23 22:00N 33°40' W 118°11'612.0
2018-May-23 21:30N 33°44' W 118°16'0 0.3
2018-May-23 21:00N 33°44' W 118°16'611.9
2018-May-23 20:30N 33°43' W 118°09'611.7
2018-May-23 19:59N 33°40' W 118°03'0 0.1
2018-May-23 19:28N 33°40' W 118°03'510.9
2018-May-23 19:01N 33°40' W 118°09'714.1
2018-May-23 18:30N 33°44' W 118°16'0 0.5
2018-May-23 18:00N 33°44' W 118°16'0 0.3
2018-May-23 17:30N 33°44' W 118°16'0 0.2
2018-May-23 17:00N 33°44' W 118°16'1 2.5
2018-May-23 16:30N 33°43' W 118°16'711.9
2018-May-23 15:56N 33°42' W 118°08'5 7.8
2018-May-23 15:21N 33°40' W 118°03'0 0.0
2018-May-23 13:23N 33°40' W 118°03'514.1
2018-May-23 13:01N 33°44' W 118°06'4 7.3
2018-May-23 12:31N 33°44' W 118°11'5 9.0
2018-May-23 12:00N 33°44' W 118°16'0 0.0
2018-May-23 11:30N 33°44' W 118°16'0 0.0
2018-May-23 11:00N 33°44' W 118°16'0 0.0
2018-May-23 10:30N 33°44' W 118°16'0 0.0
2018-May-23 10:00N 33°44' W 118°16'0 0.0
2018-May-23 09:30N 33°44' W 118°16'0 0.0
2018-May-23 09:00N 33°44' W 118°16'0 0.0
2018-May-23 08:30N 33°44' W 118°16'0 0.0
2018-May-23 08:00N 33°44' W 118°16'0 0.0
2018-May-23 07:30N 33°44' W 118°16'0 0.0
2018-May-23 07:00N 33°44' W 118°16'3 6.2
2018-May-23 06:30N 33°43' W 118°13'7 1.7
2018-May-23 02:24N 33°42' W 118°05'2 5.9
2018-May-23 02:00N 33°44' W 118°06'5 8.3
2018-May-23 01:26N 33°40' W 118°03'511.2
2018-May-23 01:00N 33°43' W 118°06'0 0.3
2018-May-23 00:30N 33°43' W 118°06'5 4.6
2018-May-22 23:31N 33°40' W 118°03'0 0.0
2018-May-22 23:19N 33°40' W 118°03'412.3
2018-May-22 23:00N 33°43' W 118°05'3 5.5
2018-May-22 22:29N 33°41' W 118°03'2 2.9
2018-May-22 21:55N 33°42' W 118°05'1 1.8
2018-May-22 21:30N 33°42' W 118°05'3 6.7
2018-May-22 21:00N 33°40' W 118°03'0 0.0
2018-May-22 20:30N 33°40' W 118°03'0 0.0
2018-May-22 19:58N 33°40' W 118°03'3 4.7
2018-May-22 19:24N 33°42' W 118°05'1 2.1
2018-May-22 19:01N 33°42' W 118°05'3 6.0
2018-May-22 18:26N 33°40' W 118°03'0 0.0
2018-May-22 17:48N 33°40' W 118°03'0 0.0
2018-May-22 17:28N 33°40' W 118°03'510.2
2018-May-22 17:00N 33°43' W 118°06'5 9.8
2018-May-22 16:30N 33°43' W 118°12'4 7.0
2018-May-22 16:00N 33°44' W 118°16'1 1.5
2018-May-22 15:30N 33°43' W 118°16'913.6
2018-May-22 14:49N 33°41' W 118°05'1 2.4
2018-May-22 14:24N 33°41' W 118°04'3 8.4
2018-May-22 14:00N 33°44' W 118°06'5 8.8
2018-May-22 13:27N 33°40' W 118°03'6 7.4
2018-May-22 12:36N 33°44' W 118°08'112.3
2018-May-22 12:30N 33°44' W 118°10'510.6
2018-May-22 12:00N 33°44' W 118°16'1 1.1
2018-May-22 11:30N 33°44' W 118°16'0 0.0
2018-May-22 11:00N 33°44' W 118°16'0 0.0
2018-May-22 10:30N 33°44' W 118°16'2 4.1
2018-May-22 10:00N 33°42' W 118°15'4 1.6
2018-May-22 07:37N 33°40' W 118°11'213.1
2018-May-22 07:25N 33°41' W 118°13'4 8.2
2018-May-22 07:00N 33°44' W 118°16'0 0.0
2018-May-22 06:29N 33°44' W 118°16'0 0.0
2018-May-22 06:00N 33°44' W 118°16'0 0.0
2018-May-22 05:30N 33°44' W 118°16'0 0.0
2018-May-22 05:00N 33°44' W 118°16'0 0.0
2018-May-22 04:30N 33°44' W 118°16'4 8.4
2018-May-22 04:00N 33°44' W 118°11'8 6.2
2018-May-22 02:40N 33°40' W 118°03'0 0.8
2018-May-22 02:28N 33°40' W 118°03'511.5
2018-May-22 01:59N 33°44' W 118°06'510.9
2018-May-22 01:29N 33°40' W 118°03'5 9.6
2018-May-22 01:00N 33°43' W 118°06'1 1.5
2018-May-22 00:25N 33°44' W 118°06'512.2
2018-May-21 23:58N 33°40' W 118°03'0 0.1
2018-May-21 23:28N 33°40' W 118°03'2 5.0
2018-May-21 22:59N 33°42' W 118°04'1 1.3
2018-May-21 22:30N 33°42' W 118°05'3 5.7
2018-May-21 21:58N 33°40' W 118°03'510.6
2018-May-21 21:30N 33°44' W 118°06'5 9.1
2018-May-21 21:00N 33°40' W 118°03'0 0.7
2018-May-21 20:30N 33°40' W 118°03'0 0.0
2018-May-21 20:00N 33°40' W 118°03'0 0.0
2018-May-21 19:30N 33°40' W 118°03'0 0.0
2018-May-21 18:53N 33°40' W 118°03'0 0.0
2018-May-21 18:29N 33°40' W 118°03'0 0.0
2018-May-21 17:56N 33°40' W 118°03'2 4.6
2018-May-21 17:24N 33°42' W 118°04'4 9.3
2018-May-21 17:00N 33°44' W 118°08'713.9
2018-May-21 16:30N 33°44' W 118°16'1 1.1
2018-May-21 16:00N 33°44' W 118°16'0 0.0
2018-May-21 15:30N 33°44' W 118°16'0 0.0
2018-May-21 15:01N 33°44' W 118°16'0 0.2
2018-May-21 14:24N 33°44' W 118°16'410.3
2018-May-21 14:00N 33°43' W 118°11'6 8.2
2018-May-21 13:16N 33°42' W 118°04'3 5.2
2018-May-21 12:41N 33°44' W 118°07'5 0.9
2018-May-21 06:57N 33°40' W 118°11'511.5
2018-May-21 06:29N 33°44' W 118°16'1 1.0
2018-May-21 05:59N 33°44' W 118°16'1 3.1
2018-May-21 05:30N 33°43' W 118°15'10 3.0
2018-May-21 02:19N 33°41' W 118°04'412.1
2018-May-21 02:00N 33°44' W 118°06'4 4.8
2018-May-21 01:13N 33°41' W 118°04'313.7
2018-May-21 01:01N 33°43' W 118°06'1 1.4
2018-May-21 00:19N 33°44' W 118°06'411.9
2018-May-21 00:00N 33°41' W 118°04'3 5.2
2018-May-20 23:30N 33°43' W 118°06'4 2.4
2018-May-20 21:46N 33°40' W 118°03'0 0.0
2018-May-20 21:30N 33°40' W 118°03'2 0.7
2018-May-20 19:07N 33°41' W 118°04'214.5
2018-May-20 19:01N 33°42' W 118°05'4 8.1
2018-May-20 18:30N 33°44' W 118°10'611.0
2018-May-20 18:01N 33°44' W 118°16'0 0.4
2018-May-20 17:31N 33°44' W 118°16'0 0.0
2018-May-20 17:01N 33°44' W 118°16'0 0.0
2018-May-20 16:31N 33°44' W 118°16'0 0.0
2018-May-20 16:00N 33°44' W 118°16'0 0.0
2018-May-20 15:29N 33°44' W 118°16'0 0.6
2018-May-20 15:01N 33°44' W 118°16'611.6
2018-May-20 14:30N 33°44' W 118°09'2 4.4
2018-May-20 14:00N 33°44' W 118°07'3 3.6
2018-May-20 13:12N 33°42' W 118°05'314.2
2018-May-20 13:00N 33°44' W 118°06'2 3.6
2018-May-20 12:30N 33°44' W 118°09'612.2
2018-May-20 12:00N 33°43' W 118°16'1 2.1
2018-May-20 11:30N 33°44' W 118°16'4 8.4
2018-May-20 11:00N 33°43' W 118°11'4 1.7
2018-May-20 08:35N 33°44' W 118°06'0 0.7
2018-May-20 08:30N 33°44' W 118°07'5 4.4
2018-May-20 07:27N 33°40' W 118°08'613.3
2018-May-20 07:00N 33°42' W 118°15'2 4.1
2018-May-20 06:30N 33°44' W 118°16'0 0.0
2018-May-20 06:00N 33°44' W 118°16'0 0.2
2018-May-20 05:30N 33°44' W 118°16'10 3.1
2018-May-20 02:16N 33°42' W 118°04'311.5
2018-May-20 02:00N 33°44' W 118°06'5 8.4
2018-May-20 01:21N 33°40' W 118°03'513.4
2018-May-20 01:00N 33°43' W 118°06'1 1.3
2018-May-20 00:22N 33°44' W 118°06'512.5
2018-May-19 23:58N 33°40' W 118°03'4 8.3
2018-May-19 23:30N 33°43' W 118°06'1 1.5
2018-May-19 23:00N 33°43' W 118°07'0 0.0
2018-May-19 22:31N 33°43' W 118°07'4 8.4
2018-May-19 22:00N 33°40' W 118°03'1 1.0
2018-May-19 21:29N 33°40' W 118°03'511.4
2018-May-19 21:00N 33°44' W 118°06'5 9.9
2018-May-19 20:31N 33°43' W 118°12'3 6.7
2018-May-19 20:00N 33°44' W 118°16'0 0.0
2018-May-19 19:30N 33°44' W 118°16'0 0.0
2018-May-19 18:59N 33°44' W 118°16'0 0.2
2018-May-19 18:30N 33°44' W 118°16'1 2.6
2018-May-19 18:01N 33°43' W 118°15'814.8
2018-May-19 17:30N 33°44' W 118°06'5 7.9
2018-May-19 16:49N 33°40' W 118°03'0 0.2
2018-May-19 16:22N 33°40' W 118°03'0 0.0
2018-May-19 15:53N 33°40' W 118°03'0 0.0
2018-May-19 15:29N 33°40' W 118°03'0 0.0
2018-May-19 14:38N 33°40' W 118°03'0 0.4
2018-May-19 14:30N 33°40' W 118°03'510.5
2018-May-19 14:00N 33°44' W 118°06'5 9.0
2018-May-19 13:24N 33°40' W 118°03'512.8
2018-May-19 13:00N 33°44' W 118°06'5 3.9
2018-May-19 11:43N 33°41' W 118°11'313.9
2018-May-19 11:30N 33°42' W 118°14'3 5.4
2018-May-19 11:00N 33°44' W 118°16'611.6
2018-May-19 10:30N 33°40' W 118°11'1 0.4
2018-May-19 08:29N 33°40' W 118°10'612.5
2018-May-19 08:01N 33°43' W 118°16'1 1.4
2018-May-19 07:31N 33°44' W 118°16'0 0.0
2018-May-19 07:01N 33°44' W 118°16'0 0.0
2018-May-19 06:29N 33°44' W 118°16'0 0.0
2018-May-19 06:01N 33°44' W 118°16'0 0.0
2018-May-19 05:31N 33°44' W 118°16'0 0.0
2018-May-19 05:00N 33°44' W 118°16'0 0.0
2018-May-19 04:30N 33°44' W 118°16'1 1.2
2018-May-19 04:00N 33°43' W 118°16'611.3
2018-May-19 03:30N 33°43' W 118°09'611.7
2018-May-19 02:57N 33°40' W 118°03'3 1.6
2018-May-19 01:11N 33°42' W 118°05'213.1
2018-May-19 01:00N 33°44' W 118°06'0 0.9
2018-May-19 00:30N 33°44' W 118°06'510.3
2018-May-18 23:59N 33°40' W 118°03'511.0
2018-May-18 23:30N 33°44' W 118°06'3 1.1
2018-May-18 20:46N 33°41' W 118°04'311.9
2018-May-18 20:30N 33°44' W 118°06'3 3.5
2018-May-18 19:42N 33°42' W 118°05'313.0
2018-May-18 19:29N 33°44' W 118°06'1 2.1
2018-May-18 19:00N 33°43' W 118°07'5 3.4
2018-May-18 17:37N 33°40' W 118°03'4 7.0
2018-May-18 17:00N 33°40' W 118°08'713.9
2018-May-18 16:30N 33°43' W 118°15'1 2.9
2018-May-18 16:00N 33°44' W 118°16'0 0.0
2018-May-18 15:30N 33°44' W 118°16'0 0.0
2018-May-18 15:00N 33°44' W 118°16'5 9.2
2018-May-18 14:30N 33°44' W 118°11'5 9.2
2018-May-18 14:01N 33°43' W 118°05'4 7.1
2018-May-18 13:30N 33°40' W 118°03'5 6.7
2018-May-18 12:41N 33°44' W 118°06'3 3.8
2018-May-18 11:58N 33°41' W 118°07'613.8
2018-May-18 11:30N 33°43' W 118°14'2 4.2
2018-May-18 11:00N 33°44' W 118°16'0 0.0
2018-May-18 10:30N 33°44' W 118°16'0 0.0
2018-May-18 10:00N 33°44' W 118°16'0 0.0
2018-May-18 09:28N 33°44' W 118°16'0 0.0
2018-May-18 09:00N 33°44' W 118°16'0 0.0
2018-May-18 08:30N 33°44' W 118°16'0 0.0
2018-May-18 08:00N 33°44' W 118°16'0 0.0
2018-May-18 07:30N 33°44' W 118°16'0 0.0
2018-May-18 07:00N 33°44' W 118°16'0 0.0
2018-May-18 06:30N 33°44' W 118°16'2 3.4
2018-May-18 06:00N 33°43' W 118°15'612.2
2018-May-18 05:30N 33°44' W 118°08'2 0.8
2018-May-18 02:17N 33°42' W 118°05'1 4.7
2018-May-18 02:00N 33°43' W 118°06'2 2.1
2018-May-18 01:08N 33°42' W 118°05'213.4
2018-May-18 00:59N 33°44' W 118°06'0 0.8
2018-May-18 00:24N 33°44' W 118°06'511.6
2018-May-17 23:55N 33°40' W 118°03'0 0.1
2018-May-17 23:30N 33°40' W 118°03'4 9.0
2018-May-17 23:00N 33°43' W 118°06'4 1.3
2018-May-17 20:11N 33°40' W 118°06'314.3
2018-May-17 20:00N 33°40' W 118°09'713.1
2018-May-17 19:30N 33°43' W 118°16'1 1.7
2018-May-17 19:00N 33°44' W 118°16'0 0.2
2018-May-17 18:30N 33°44' W 118°16'0 0.0
2018-May-17 18:00N 33°44' W 118°16'3 6.2
2018-May-17 17:30N 33°43' W 118°13'510.8
2018-May-17 17:00N 33°43' W 118°06'1 2.1
2018-May-17 16:18N 33°42' W 118°05'2 5.4
2018-May-17 16:00N 33°44' W 118°06'5 8.0
2018-May-17 15:24N 33°40' W 118°03'0 0.1
2018-May-17 14:55N 33°40' W 118°03'511.3
2018-May-17 14:30N 33°43' W 118°06'1 2.7
2018-May-17 14:00N 33°42' W 118°05'3 5.9
2018-May-17 13:28N 33°40' W 118°03'510.6
2018-May-17 12:57N 33°44' W 118°06'5 6.8
2018-May-17 12:10N 33°40' W 118°03'0 0.0
2018-May-17 11:55N 33°40' W 118°03'0 0.0
2018-May-17 11:18N 33°40' W 118°03'0 0.0
2018-May-17 10:43N 33°40' W 118°03'10 2.5
2018-May-17 06:45N 33°42' W 118°14'310.6
2018-May-17 06:30N 33°44' W 118°16'0 0.6
2018-May-17 06:00N 33°44' W 118°16'0 0.0
2018-May-17 05:30N 33°44' W 118°16'12 4.1
2018-May-17 02:35N 33°40' W 118°03'0 0.1
2018-May-17 02:26N 33°40' W 118°03'512.6
2018-May-17 02:00N 33°44' W 118°06'510.9
2018-May-17 01:30N 33°40' W 118°03'4 8.9
2018-May-17 01:00N 33°43' W 118°06'2 3.6
2018-May-17 00:29N 33°42' W 118°05'3 4.0
2018-May-16 23:51N 33°40' W 118°03'0 0.0
2018-May-16 23:30N 33°40' W 118°03'5 9.7
2018-May-16 23:00N 33°44' W 118°06'1 0.3
2018-May-16 18:46N 33°43' W 118°05'1 3.0
2018-May-16 18:30N 33°43' W 118°06'2 1.3
2018-May-16 16:45N 33°42' W 118°04'311.1
2018-May-16 16:28N 33°44' W 118°06'3 1.6
2018-May-16 14:28N 33°41' W 118°04'1 2.9
2018-May-16 14:00N 33°42' W 118°05'0 0.5
2018-May-16 13:13N 33°43' W 118°06'2 3.7
2018-May-16 12:47N 33°44' W 118°06'7 1.5
2018-May-16 08:22N 33°41' W 118°14'3 9.4
2018-May-16 08:01N 33°44' W 118°16'0 0.0
2018-May-16 07:30N 33°44' W 118°16'0 0.0
2018-May-16 07:00N 33°44' W 118°16'0 1.0
2018-May-16 06:31N 33°44' W 118°16'10 2.7
2018-May-16 02:56N 33°42' W 118°05'0 0.5
2018-May-16 02:24N 33°42' W 118°05'2 5.1
2018-May-16 02:01N 33°43' W 118°06'2 2.9
2018-May-16 01:12N 33°41' W 118°04'314.1
2018-May-16 01:00N 33°44' W 118°06'3 1.4
2018-May-15 23:09N 33°42' W 118°04'215.2
2018-May-15 23:00N 33°44' W 118°06'3 6.6
2018-May-15 22:28N 33°41' W 118°04'3 5.4
2018-May-15 22:00N 33°43' W 118°06'1 0.9
2018-May-15 20:23N 33°42' W 118°04'2 4.6
2018-May-15 20:00N 33°43' W 118°06'1 0.6
2018-May-15 18:23N 33°42' W 118°05'0 0.5
2018-May-15 18:00N 33°42' W 118°05'3 3.2
2018-May-15 16:57N 33°40' W 118°03'2 0.6
2018-May-15 14:16N 33°41' W 118°04'413.7
2018-May-15 14:00N 33°44' W 118°06'3 4.0
2018-May-15 13:12N 33°42' W 118°04'314.6
2018-May-15 13:00N 33°44' W 118°06'0 0.0
2018-May-15 02:56N 33°44' W 118°06'5 9.0
2018-May-15 02:23N 33°40' W 118°03'0 0.0
2018-May-15 01:44N 33°40' W 118°03'4 5.8
2018-May-15 01:02N 33°43' W 118°06'014.0
2018-May-15 01:00N 33°43' W 118°06'4 3.5
2018-May-14 23:47N 33°40' W 118°03'0 0.0
2018-May-14 23:25N 33°40' W 118°03'4 9.0
2018-May-14 23:01N 33°43' W 118°05'2 4.4
2018-May-14 22:30N 33°41' W 118°04'1 3.0
2018-May-14 22:00N 33°40' W 118°03'0 0.0
2018-May-14 21:21N 33°40' W 118°03'  
Track history (hours):
 
Tides and Currents Weather Stations Pressure Air Temp Water Temp Dewpoint Dewpoint Depression Visibility Wind Speed Wind Dir Waves Ship Positions

Peter Mac

Owner: So Cal Ship Services inc., TERMINAL ISLAND, CA. More information available from US FCC via Universal Licensing System and Coast Guard Vessel Documentation Center.

Last reported at 2018-May-24 19:37 UTC. Time now 2018-May-24 21:09 UTC.
Position N 33°40' W 118°03'.

Length 27 m; draft 2.4 m.

Type: Other ship. MMSI: 367104080.

Date/timePositionNaut miles runAvg speedWind from/ knotsBaromVisibWave heightAir tempDewpointWater temp
2018-May-24 19:37N 33°40' W 118°03'213.8
2018-May-24 19:26N 33°42' W 118°05'1 1.7
2018-May-24 19:00N 33°42' W 118°05'2 3.0
2018-May-24 18:11N 33°40' W 118°04'315.2
2018-May-24 17:57N 33°42' W 118°07'614.2
2018-May-24 17:30N 33°43' W 118°15'2 3.6
2018-May-24 17:01N 33°44' W 118°16'2 3.3
2018-May-24 16:30N 33°43' W 118°15'612.6
2018-May-24 16:01N 33°42' W 118°08'5 7.9
2018-May-24 15:26N 33°40' W 118°03'0 0.0
2018-May-24 14:53N 33°40' W 118°03'4 6.6
2018-May-24 14:18N 33°43' W 118°06'0 0.2
2018-May-24 14:01N 33°43' W 118°06'9 0.6
2018-May-23 23:51N 33°44' W 118°16'1 3.4
2018-May-23 23:31N 33°43' W 118°16'714.1
2018-May-23 23:00N 33°44' W 118°07'611.0
2018-May-23 22:30N 33°40' W 118°03'713.1
2018-May-23 22:00N 33°40' W 118°11'612.0
2018-May-23 21:30N 33°44' W 118°16'0 0.3
2018-May-23 21:00N 33°44' W 118°16'611.9
2018-May-23 20:30N 33°43' W 118°09'611.7
2018-May-23 19:59N 33°40' W 118°03'0 0.1
2018-May-23 19:28N 33°40' W 118°03'510.9
2018-May-23 19:01N 33°40' W 118°09'714.1
2018-May-23 18:30N 33°44' W 118°16'0 0.5
2018-May-23 18:00N 33°44' W 118°16'0 0.3
2018-May-23 17:30N 33°44' W 118°16'0 0.2
2018-May-23 17:00N 33°44' W 118°16'1 2.5
2018-May-23 16:30N 33°43' W 118°16'711.9
2018-May-23 15:56N 33°42' W 118°08'5 7.8
2018-May-23 15:21N 33°40' W 118°03'0 0.0
2018-May-23 13:23N 33°40' W 118°03'514.1
2018-May-23 13:01N 33°44' W 118°06'4 7.3
2018-May-23 12:31N 33°44' W 118°11'5 9.0
2018-May-23 12:00N 33°44' W 118°16'0 0.0
2018-May-23 11:30N 33°44' W 118°16'0 0.0
2018-May-23 11:00N 33°44' W 118°16'0 0.0
2018-May-23 10:30N 33°44' W 118°16'0 0.0
2018-May-23 10:00N 33°44' W 118°16'0 0.0
2018-May-23 09:30N 33°44' W 118°16'0 0.0
2018-May-23 09:00N 33°44' W 118°16'0 0.0
2018-May-23 08:30N 33°44' W 118°16'0 0.0
2018-May-23 08:00N 33°44' W 118°16'0 0.0
2018-May-23 07:30N 33°44' W 118°16'0 0.0
2018-May-23 07:00N 33°44' W 118°16'3 6.2
2018-May-23 06:30N 33°43' W 118°13'7 1.7
2018-May-23 02:24N 33°42' W 118°05'2 5.9
2018-May-23 02:00N 33°44' W 118°06'5 8.3
2018-May-23 01:26N 33°40' W 118°03'511.2
2018-May-23 01:00N 33°43' W 118°06'0 0.3
2018-May-23 00:30N 33°43' W 118°06'5 4.6
2018-May-22 23:31N 33°40' W 118°03'0 0.0
2018-May-22 23:19N 33°40' W 118°03'412.3
2018-May-22 23:00N 33°43' W 118°05'3 5.5
2018-May-22 22:29N 33°41' W 118°03'2 2.9
2018-May-22 21:55N 33°42' W 118°05'1 1.8
2018-May-22 21:30N 33°42' W 118°05'3 6.7
2018-May-22 21:00N 33°40' W 118°03'0 0.0
2018-May-22 20:30N 33°40' W 118°03'0 0.0
2018-May-22 19:58N 33°40' W 118°03'3 4.7
2018-May-22 19:24N 33°42' W 118°05'1 2.1
2018-May-22 19:01N 33°42' W 118°05'3 6.0
2018-May-22 18:26N 33°40' W 118°03'0 0.0
2018-May-22 17:48N 33°40' W 118°03'0 0.0
2018-May-22 17:28N 33°40' W 118°03'510.2
2018-May-22 17:00N 33°43' W 118°06'5 9.8
2018-May-22 16:30N 33°43' W 118°12'4 7.0
2018-May-22 16:00N 33°44' W 118°16'1 1.5
2018-May-22 15:30N 33°43' W 118°16'913.6
2018-May-22 14:49N 33°41' W 118°05'1 2.4
2018-May-22 14:24N 33°41' W 118°04'3 8.4
2018-May-22 14:00N 33°44' W 118°06'5 8.8
2018-May-22 13:27N 33°40' W 118°03'6 7.4
2018-May-22 12:36N 33°44' W 118°08'112.3
2018-May-22 12:30N 33°44' W 118°10'510.6
2018-May-22 12:00N 33°44' W 118°16'1 1.1
2018-May-22 11:30N 33°44' W 118°16'0 0.0
2018-May-22 11:00N 33°44' W 118°16'0 0.0
2018-May-22 10:30N 33°44' W 118°16'2 4.1
2018-May-22 10:00N 33°42' W 118°15'4 1.6
2018-May-22 07:37N 33°40' W 118°11'213.1
2018-May-22 07:25N 33°41' W 118°13'4 8.2
2018-May-22 07:00N 33°44' W 118°16'0 0.0
2018-May-22 06:29N 33°44' W 118°16'0 0.0
2018-May-22 06:00N 33°44' W 118°16'0 0.0
2018-May-22 05:30N 33°44' W 118°16'0 0.0
2018-May-22 05:00N 33°44' W 118°16'0 0.0
2018-May-22 04:30N 33°44' W 118°16'4 8.4
2018-May-22 04:00N 33°44' W 118°11'8 6.2
2018-May-22 02:40N 33°40' W 118°03'0 0.8
2018-May-22 02:28N 33°40' W 118°03'511.5
2018-May-22 01:59N 33°44' W 118°06'510.9
2018-May-22 01:29N 33°40' W 118°03'5 9.6
2018-May-22 01:00N 33°43' W 118°06'1 1.5
2018-May-22 00:25N 33°44' W 118°06'512.2
2018-May-21 23:58N 33°40' W 118°03'0 0.1
2018-May-21 23:28N 33°40' W 118°03'2 5.0
2018-May-21 22:59N 33°42' W 118°04'1 1.3
2018-May-21 22:30N 33°42' W 118°05'3 5.7
2018-May-21 21:58N 33°40' W 118°03'510.6
2018-May-21 21:30N 33°44' W 118°06'5 9.1
2018-May-21 21:00N 33°40' W 118°03'0 0.7
2018-May-21 20:30N 33°40' W 118°03'0 0.0
2018-May-21 20:00N 33°40' W 118°03'0 0.0
2018-May-21 19:30N 33°40' W 118°03'0 0.0
2018-May-21 18:53N 33°40' W 118°03'0 0.0
2018-May-21 18:29N 33°40' W 118°03'0 0.0
2018-May-21 17:56N 33°40' W 118°03'2 4.6
2018-May-21 17:24N 33°42' W 118°04'4 9.3
2018-May-21 17:00N 33°44' W 118°08'713.9
2018-May-21 16:30N 33°44' W 118°16'1 1.1
2018-May-21 16:00N 33°44' W 118°16'0 0.0
2018-May-21 15:30N 33°44' W 118°16'0 0.0
2018-May-21 15:01N 33°44' W 118°16'0 0.2
2018-May-21 14:24N 33°44' W 118°16'410.3
2018-May-21 14:00N 33°43' W 118°11'6 8.2
2018-May-21 13:16N 33°42' W 118°04'3 5.2
2018-May-21 12:41N 33°44' W 118°07'5 0.9
2018-May-21 06:57N 33°40' W 118°11'511.5
2018-May-21 06:29N 33°44' W 118°16'1 1.0
2018-May-21 05:59N 33°44' W 118°16'1 3.1
2018-May-21 05:30N 33°43' W 118°15'10 3.0
2018-May-21 02:19N 33°41' W 118°04'412.1
2018-May-21 02:00N 33°44' W 118°06'4 4.8
2018-May-21 01:13N 33°41' W 118°04'313.7
2018-May-21 01:01N 33°43' W 118°06'1 1.4
2018-May-21 00:19N 33°44' W 118°06'411.9
2018-May-21 00:00N 33°41' W 118°04'3 5.2
2018-May-20 23:30N 33°43' W 118°06'4 2.4
2018-May-20 21:46N 33°40' W 118°03'0 0.0
2018-May-20 21:30N 33°40' W 118°03'2 0.7
2018-May-20 19:07N 33°41' W 118°04'214.5
2018-May-20 19:01N 33°42' W 118°05'4 8.1
2018-May-20 18:30N 33°44' W 118°10'611.0
2018-May-20 18:01N 33°44' W 118°16'0 0.4
2018-May-20 17:31N 33°44' W 118°16'0 0.0
2018-May-20 17:01N 33°44' W 118°16'0 0.0
2018-May-20 16:31N 33°44' W 118°16'0 0.0
2018-May-20 16:00N 33°44' W 118°16'0 0.0
2018-May-20 15:29N 33°44' W 118°16'0 0.6
2018-May-20 15:01N 33°44' W 118°16'611.6
2018-May-20 14:30N 33°44' W 118°09'2 4.4
2018-May-20 14:00N 33°44' W 118°07'3 3.6
2018-May-20 13:12N 33°42' W 118°05'314.2
2018-May-20 13:00N 33°44' W 118°06'2 3.6
2018-May-20 12:30N 33°44' W 118°09'612.2
2018-May-20 12:00N 33°43' W 118°16'1 2.1
2018-May-20 11:30N 33°44' W 118°16'4 8.4
2018-May-20 11:00N 33°43' W 118°11'4 1.7
2018-May-20 08:35N 33°44' W 118°06'0 0.7
2018-May-20 08:30N 33°44' W 118°07'5 4.4
2018-May-20 07:27N 33°40' W 118°08'613.3
2018-May-20 07:00N 33°42' W 118°15'2 4.1
2018-May-20 06:30N 33°44' W 118°16'0 0.0
2018-May-20 06:00N 33°44' W 118°16'0 0.2
2018-May-20 05:30N 33°44' W 118°16'10 3.1
2018-May-20 02:16N 33°42' W 118°04'311.5
2018-May-20 02:00N 33°44' W 118°06'5 8.4
2018-May-20 01:21N 33°40' W 118°03'513.4
2018-May-20 01:00N 33°43' W 118°06'1 1.3
2018-May-20 00:22N 33°44' W 118°06'512.5
2018-May-19 23:58N 33°40' W 118°03'4 8.3
2018-May-19 23:30N 33°43' W 118°06'1 1.5
2018-May-19 23:00N 33°43' W 118°07'0 0.0
2018-May-19 22:31N 33°43' W 118°07'4 8.4
2018-May-19 22:00N 33°40' W 118°03'1 1.0
2018-May-19 21:29N 33°40' W 118°03'511.4
2018-May-19 21:00N 33°44' W 118°06'5 9.9
2018-May-19 20:31N 33°43' W 118°12'3 6.7
2018-May-19 20:00N 33°44' W 118°16'0 0.0
2018-May-19 19:30N 33°44' W 118°16'0 0.0
2018-May-19 18:59N 33°44' W 118°16'0 0.2
2018-May-19 18:30N 33°44' W 118°16'1 2.6
2018-May-19 18:01N 33°43' W 118°15'814.8
2018-May-19 17:30N 33°44' W 118°06'5 7.9
2018-May-19 16:49N 33°40' W 118°03'0 0.2
2018-May-19 16:22N 33°40' W 118°03'0 0.0
2018-May-19 15:53N 33°40' W 118°03'0 0.0
2018-May-19 15:29N 33°40' W 118°03'0 0.0
2018-May-19 14:38N 33°40' W 118°03'0 0.4
2018-May-19 14:30N 33°40' W 118°03'510.5
2018-May-19 14:00N 33°44' W 118°06'5 9.0
2018-May-19 13:24N 33°40' W 118°03'512.8
2018-May-19 13:00N 33°44' W 118°06'5 3.9
2018-May-19 11:43N 33°41' W 118°11'313.9
2018-May-19 11:30N 33°42' W 118°14'3 5.4
2018-May-19 11:00N 33°44' W 118°16'611.6
2018-May-19 10:30N 33°40' W 118°11'1 0.4
2018-May-19 08:29N 33°40' W 118°10'612.5
2018-May-19 08:01N 33°43' W 118°16'1 1.4
2018-May-19 07:31N 33°44' W 118°16'0 0.0
2018-May-19 07:01N 33°44' W 118°16'0 0.0
2018-May-19 06:29N 33°44' W 118°16'0 0.0
2018-May-19 06:01N 33°44' W 118°16'0 0.0
2018-May-19 05:31N 33°44' W 118°16'0 0.0
2018-May-19 05:00N 33°44' W 118°16'0 0.0
2018-May-19 04:30N 33°44' W 118°16'1 1.2
2018-May-19 04:00N 33°43' W 118°16'611.3
2018-May-19 03:30N 33°43' W 118°09'611.7
2018-May-19 02:57N 33°40' W 118°03'3 1.6
2018-May-19 01:11N 33°42' W 118°05'213.1
2018-May-19 01:00N 33°44' W 118°06'0 0.9
2018-May-19 00:30N 33°44' W 118°06'510.3
2018-May-18 23:59N 33°40' W 118°03'511.0
2018-May-18 23:30N 33°44' W 118°06'3 1.1
2018-May-18 20:46N 33°41' W 118°04'311.9
2018-May-18 20:30N 33°44' W 118°06'3 3.5
2018-May-18 19:42N 33°42' W 118°05'313.0
2018-May-18 19:29N 33°44' W 118°06'1 2.1
2018-May-18 19:00N 33°43' W 118°07'5 3.4
2018-May-18 17:37N 33°40' W 118°03'4 7.0
2018-May-18 17:00N 33°40' W 118°08'713.9
2018-May-18 16:30N 33°43' W 118°15'1 2.9
2018-May-18 16:00N 33°44' W 118°16'0 0.0
2018-May-18 15:30N 33°44' W 118°16'0 0.0
2018-May-18 15:00N 33°44' W 118°16'5 9.2
2018-May-18 14:30N 33°44' W 118°11'5 9.2
2018-May-18 14:01N 33°43' W 118°05'4 7.1
2018-May-18 13:30N 33°40' W 118°03'5 6.7
2018-May-18 12:41N 33°44' W 118°06'3 3.8
2018-May-18 11:58N 33°41' W 118°07'613.8
2018-May-18 11:30N 33°43' W 118°14'2 4.2
2018-May-18 11:00N 33°44' W 118°16'0 0.0
2018-May-18 10:30N 33°44' W 118°16'0 0.0
2018-May-18 10:00N 33°44' W 118°16'0 0.0
2018-May-18 09:28N 33°44' W 118°16'0 0.0
2018-May-18 09:00N 33°44' W 118°16'0 0.0
2018-May-18 08:30N 33°44' W 118°16'0 0.0
2018-May-18 08:00N 33°44' W 118°16'0 0.0
2018-May-18 07:30N 33°44' W 118°16'0 0.0
2018-May-18 07:00N 33°44' W 118°16'0 0.0
2018-May-18 06:30N 33°44' W 118°16'2 3.4
2018-May-18 06:00N 33°43' W 118°15'612.2
2018-May-18 05:30N 33°44' W 118°08'2 0.8
2018-May-18 02:17N 33°42' W 118°05'1 4.7
2018-May-18 02:00N 33°43' W 118°06'2 2.1
2018-May-18 01:08N 33°42' W 118°05'213.4
2018-May-18 00:59N 33°44' W 118°06'0 0.8
2018-May-18 00:24N 33°44' W 118°06'511.6
2018-May-17 23:55N 33°40' W 118°03'0 0.1
2018-May-17 23:30N 33°40' W 118°03'4 9.0
2018-May-17 23:00N 33°43' W 118°06'4 1.3
2018-May-17 20:11N 33°40' W 118°06'314.3
2018-May-17 20:00N 33°40' W 118°09'713.1
2018-May-17 19:30N 33°43' W 118°16'1 1.7
2018-May-17 19:00N 33°44' W 118°16'0 0.2
2018-May-17 18:30N 33°44' W 118°16'0 0.0
2018-May-17 18:00N 33°44' W 118°16'3 6.2
2018-May-17 17:30N 33°43' W 118°13'510.8
2018-May-17 17:00N 33°43' W 118°06'1 2.1
2018-May-17 16:18N 33°42' W 118°05'2 5.4
2018-May-17 16:00N 33°44' W 118°06'5 8.0
2018-May-17 15:24N 33°40' W 118°03'0 0.1
2018-May-17 14:55N 33°40' W 118°03'511.3
2018-May-17 14:30N 33°43' W 118°06'1 2.7
2018-May-17 14:00N 33°42' W 118°05'3 5.9
2018-May-17 13:28N 33°40' W 118°03'510.6
2018-May-17 12:57N 33°44' W 118°06'5 6.8
2018-May-17 12:10N 33°40' W 118°03'0 0.0
2018-May-17 11:55N 33°40' W 118°03'0 0.0
2018-May-17 11:18N 33°40' W 118°03'0 0.0
2018-May-17 10:43N 33°40' W 118°03'10 2.5
2018-May-17 06:45N 33°42' W 118°14'310.6
2018-May-17 06:30N 33°44' W 118°16'0 0.6
2018-May-17 06:00N 33°44' W 118°16'0 0.0
2018-May-17 05:30N 33°44' W 118°16'12 4.1
2018-May-17 02:35N 33°40' W 118°03'0 0.1
2018-May-17 02:26N 33°40' W 118°03'512.6
2018-May-17 02:00N 33°44' W 118°06'510.9
2018-May-17 01:30N 33°40' W 118°03'4 8.9
2018-May-17 01:00N 33°43' W 118°06'2 3.6
2018-May-17 00:29N 33°42' W 118°05'3 4.0
2018-May-16 23:51N 33°40' W 118°03'0 0.0
2018-May-16 23:30N 33°40' W 118°03'5 9.7
2018-May-16 23:00N 33°44' W 118°06'1 0.3
2018-May-16 18:46N 33°43' W 118°05'1 3.0
2018-May-16 18:30N 33°43' W 118°06'2 1.3
2018-May-16 16:45N 33°42' W 118°04'311.1
2018-May-16 16:28N 33°44' W 118°06'3 1.6
2018-May-16 14:28N 33°41' W 118°04'1 2.9
2018-May-16 14:00N 33°42' W 118°05'0 0.5
2018-May-16 13:13N 33°43' W 118°06'2 3.7
2018-May-16 12:47N 33°44' W 118°06'7 1.5
2018-May-16 08:22N 33°41' W 118°14'3 9.4
2018-May-16 08:01N 33°44' W 118°16'0 0.0
2018-May-16 07:30N 33°44' W 118°16'0 0.0
2018-May-16 07:00N 33°44' W 118°16'0 1.0
2018-May-16 06:31N 33°44' W 118°16'10 2.7
2018-May-16 02:56N 33°42' W 118°05'0 0.5
2018-May-16 02:24N 33°42' W 118°05'2 5.1
2018-May-16 02:01N 33°43' W 118°06'2 2.9
2018-May-16 01:12N 33°41' W 118°04'314.1
2018-May-16 01:00N 33°44' W 118°06'3 1.4
2018-May-15 23:09N 33°42' W 118°04'215.2
2018-May-15 23:00N 33°44' W 118°06'3 6.6
2018-May-15 22:28N 33°41' W 118°04'3 5.4
2018-May-15 22:00N 33°43' W 118°06'1 0.9
2018-May-15 20:23N 33°42' W 118°04'2 4.6
2018-May-15 20:00N 33°43' W 118°06'1 0.6
2018-May-15 18:23N 33°42' W 118°05'0 0.5
2018-May-15 18:00N 33°42' W 118°05'3 3.2
2018-May-15 16:57N 33°40' W 118°03'2 0.6
2018-May-15 14:16N 33°41' W 118°04'413.7
2018-May-15 14:00N 33°44' W 118°06'3 4.0
2018-May-15 13:12N 33°42' W 118°04'314.6
2018-May-15 13:00N 33°44' W 118°06'0 0.0
2018-May-15 02:56N 33°44' W 118°06'5 9.0
2018-May-15 02:23N 33°40' W 118°03'0 0.0
2018-May-15 01:44N 33°40' W 118°03'4 5.8
2018-May-15 01:02N 33°43' W 118°06'014.0
2018-May-15 01:00N 33°43' W 118°06'4 3.5
2018-May-14 23:47N 33°40' W 118°03'0 0.0
2018-May-14 23:25N 33°40' W 118°03'4 9.0
2018-May-14 23:01N 33°43' W 118°05'2 4.4
2018-May-14 22:30N 33°41' W 118°04'1 3.0
2018-May-14 22:00N 33°40' W 118°03'0 0.0
2018-May-14 21:21N 33°40' W 118°03'  

Dump ship's entire track history